sensor_id;sensor_type;location;lat;lon;timestamp;temperature;humidity
66343;DHT22;53144;51.524;5.080;2022-09-09T00:04:37;13.18;97.84
66343;DHT22;53144;51.524;5.080;2022-09-09T00:07:16;13.14;97.82
66343;DHT22;53144;51.524;5.080;2022-09-09T00:09:50;13.17;97.93
66343;DHT22;53144;51.524;5.080;2022-09-09T00:15:37;13.18;98.16
66343;DHT22;53144;51.524;5.080;2022-09-09T00:20:36;13.14;98.08
66343;DHT22;53144;51.524;5.080;2022-09-09T00:23:21;13.18;97.95
66343;DHT22;53144;51.524;5.080;2022-09-09T00:25:57;13.18;97.83
66343;DHT22;53144;51.524;5.080;2022-09-09T00:28:26;13.14;97.90
66343;DHT22;53144;51.524;5.080;2022-09-09T00:30:52;13.12;97.99
66343;DHT22;53144;51.524;5.080;2022-09-09T00:33:23;13.14;97.96
66343;DHT22;53144;51.524;5.080;2022-09-09T00:35:56;13.18;97.89
66343;DHT22;53144;51.524;5.080;2022-09-09T00:38:33;13.08;97.93
66343;DHT22;53144;51.524;5.080;2022-09-09T00:41:24;13.08;97.91
66343;DHT22;53144;51.524;5.080;2022-09-09T00:44:03;13.04;97.99
66343;DHT22;53144;51.524;5.080;2022-09-09T00:49:39;13.11;98.06
66343;DHT22;53144;51.524;5.080;2022-09-09T00:52:56;13.20;98.12
66343;DHT22;53144;51.524;5.080;2022-09-09T00:58:20;13.25;97.90
66343;DHT22;53144;51.524;5.080;2022-09-09T01:00:46;13.32;97.97
66343;DHT22;53144;51.524;5.080;2022-09-09T01:03:29;13.37;97.97
66343;DHT22;53144;51.524;5.080;2022-09-09T01:06:36;13.40;98.00
66343;DHT22;53144;51.524;5.080;2022-09-09T01:12:07;13.47;97.95
66343;DHT22;53144;51.524;5.080;2022-09-09T01:17:05;13.47;97.96
66343;DHT22;53144;51.524;5.080;2022-09-09T01:22:28;13.42;98.04
66343;DHT22;53144;51.524;5.080;2022-09-09T01:25:18;13.38;98.08
66343;DHT22;53144;51.524;5.080;2022-09-09T01:27:46;13.38;98.19
66343;DHT22;53144;51.524;5.080;2022-09-09T01:30:15;13.40;98.11
66343;DHT22;53144;51.524;5.080;2022-09-09T01:32:42;13.41;98.04
66343;DHT22;53144;51.524;5.080;2022-09-09T01:35:18;13.38;98.04
66343;DHT22;53144;51.524;5.080;2022-09-09T01:37:45;13.40;98.24
66343;DHT22;53144;51.524;5.080;2022-09-09T01:40:11;13.40;98.02
66343;DHT22;53144;51.524;5.080;2022-09-09T01:42:37;13.34;98.11
66343;DHT22;53144;51.524;5.080;2022-09-09T01:45:02;13.32;98.17
66343;DHT22;53144;51.524;5.080;2022-09-09T01:47:28;13.35;98.10
66343;DHT22;53144;51.524;5.080;2022-09-09T01:49:53;13.38;98.12
66343;DHT22;53144;51.524;5.080;2022-09-09T01:52:18;13.31;97.97
66343;DHT22;53144;51.524;5.080;2022-09-09T01:54:44;13.27;97.98
66343;DHT22;53144;51.524;5.080;2022-09-09T02:00:07;13.30;97.98
66343;DHT22;53144;51.524;5.080;2022-09-09T02:03:08;13.32;97.98
66343;DHT22;53144;51.524;5.080;2022-09-09T02:05:41;13.27;97.93
66343;DHT22;53144;51.524;5.080;2022-09-09T02:10:45;13.28;98.09
66343;DHT22;53144;51.524;5.080;2022-09-09T02:13:14;13.25;97.97
66343;DHT22;53144;51.524;5.080;2022-09-09T02:15:44;13.22;97.94
66343;DHT22;53144;51.524;5.080;2022-09-09T02:18:14;13.21;97.92
66343;DHT22;53144;51.524;5.080;2022-09-09T02:20:41;13.18;97.96
66343;DHT22;53144;51.524;5.080;2022-09-09T02:23:09;13.21;98.03
66343;DHT22;53144;51.524;5.080;2022-09-09T02:25:36;13.20;98.21
66343;DHT22;53144;51.524;5.080;2022-09-09T02:28:05;13.18;98.19
66343;DHT22;53144;51.524;5.080;2022-09-09T02:30:33;13.17;98.22
66343;DHT22;53144;51.524;5.080;2022-09-09T02:33:01;13.15;98.31
66343;DHT22;53144;51.524;5.080;2022-09-09T02:35:30;13.14;98.37
66343;DHT22;53144;51.524;5.080;2022-09-09T02:38:00;13.20;98.42
66343;DHT22;53144;51.524;5.080;2022-09-09T02:40:27;13.27;98.29
66343;DHT22;53144;51.524;5.080;2022-09-09T02:42:53;13.31;98.24
66343;DHT22;53144;51.524;5.080;2022-09-09T02:45:24;13.32;98.24
66343;DHT22;53144;51.524;5.080;2022-09-09T02:50:34;13.30;98.27
66343;DHT22;53144;51.524;5.080;2022-09-09T02:53:42;13.34;98.29
66343;DHT22;53144;51.524;5.080;2022-09-09T02:56:03;13.32;98.20
66343;DHT22;53144;51.524;5.080;2022-09-09T02:58:32;13.37;98.08
66343;DHT22;53144;51.524;5.080;2022-09-09T03:00:58;13.35;98.06
66343;DHT22;53144;51.524;5.080;2022-09-09T03:03:26;13.28;97.95
66343;DHT22;53144;51.524;5.080;2022-09-09T03:05:52;13.28;97.91
66343;DHT22;53144;51.524;5.080;2022-09-09T03:08:17;13.30;97.86
66343;DHT22;53144;51.524;5.080;2022-09-09T03:10:43;13.22;98.01
66343;DHT22;53144;51.524;5.080;2022-09-09T03:13:09;13.28;98.05
66343;DHT22;53144;51.524;5.080;2022-09-09T03:15:34;13.27;98.13
66343;DHT22;53144;51.524;5.080;2022-09-09T03:18:00;13.27;98.19
66343;DHT22;53144;51.524;5.080;2022-09-09T03:20:28;13.32;98.14
66343;DHT22;53144;51.524;5.080;2022-09-09T03:22:54;13.32;98.14
66343;DHT22;53144;51.524;5.080;2022-09-09T03:25:19;13.31;98.24
66343;DHT22;53144;51.524;5.080;2022-09-09T03:27:45;13.31;98.24
66343;DHT22;53144;51.524;5.080;2022-09-09T03:30:10;13.32;98.37
66343;DHT22;53144;51.524;5.080;2022-09-09T03:32:36;13.30;98.34
66343;DHT22;53144;51.524;5.080;2022-09-09T03:35:02;13.27;98.45
66343;DHT22;53144;51.524;5.080;2022-09-09T03:37:27;13.31;98.50
66343;DHT22;53144;51.524;5.080;2022-09-09T03:39:56;13.34;98.56
66343;DHT22;53144;51.524;5.080;2022-09-09T03:42:22;13.30;98.51
66343;DHT22;53144;51.524;5.080;2022-09-09T03:44:47;13.28;98.55
66343;DHT22;53144;51.524;5.080;2022-09-09T03:47:19;13.24;98.56
66343;DHT22;53144;51.524;5.080;2022-09-09T03:49:45;13.27;98.61
66343;DHT22;53144;51.524;5.080;2022-09-09T03:52:10;13.28;98.68
66343;DHT22;53144;51.524;5.080;2022-09-09T03:54:35;13.25;98.67
66343;DHT22;53144;51.524;5.080;2022-09-09T03:57:02;13.24;98.66
66343;DHT22;53144;51.524;5.080;2022-09-09T03:59:27;13.28;98.71
66343;DHT22;53144;51.524;5.080;2022-09-09T04:01:53;13.32;98.70
66343;DHT22;53144;51.524;5.080;2022-09-09T04:04:18;13.34;98.65
66343;DHT22;53144;51.524;5.080;2022-09-09T04:06:45;13.40;98.66
66343;DHT22;53144;51.524;5.080;2022-09-09T04:09:11;13.38;98.64
66343;DHT22;53144;51.524;5.080;2022-09-09T04:11:36;13.40;98.62
66343;DHT22;53144;51.524;5.080;2022-09-09T04:14:02;13.38;98.56
66343;DHT22;53144;51.524;5.080;2022-09-09T04:16:27;13.45;98.59
66343;DHT22;53144;51.524;5.080;2022-09-09T04:18:53;13.42;98.58
66343;DHT22;53144;51.524;5.080;2022-09-09T04:21:18;13.44;98.52
66343;DHT22;53144;51.524;5.080;2022-09-09T04:23:44;13.49;98.52
66343;DHT22;53144;51.524;5.080;2022-09-09T04:26:09;13.54;98.45
66343;DHT22;53144;51.524;5.080;2022-09-09T04:28:36;13.57;98.38
66343;DHT22;53144;51.524;5.080;2022-09-09T04:31:10;13.58;98.25
66343;DHT22;53144;51.524;5.080;2022-09-09T04:33:38;13.57;98.32
66343;DHT22;53144;51.524;5.080;2022-09-09T04:36:04;13.61;98.29
66343;DHT22;53144;51.524;5.080;2022-09-09T04:38:30;13.63;98.26
66343;DHT22;53144;51.524;5.080;2022-09-09T04:40:55;13.63;98.30
66343;DHT22;53144;51.524;5.080;2022-09-09T04:43:21;13.68;98.36
66343;DHT22;53144;51.524;5.080;2022-09-09T04:45:48;13.73;98.35
66343;DHT22;53144;51.524;5.080;2022-09-09T04:48:14;13.72;98.28
66343;DHT22;53144;51.524;5.080;2022-09-09T04:50:39;13.75;98.19
66343;DHT22;53144;51.524;5.080;2022-09-09T04:53:08;13.75;98.18
66343;DHT22;53144;51.524;5.080;2022-09-09T04:55:34;13.76;98.14
66343;DHT22;53144;51.524;5.080;2022-09-09T04:58:07;13.72;98.05
66343;DHT22;53144;51.524;5.080;2022-09-09T05:00:34;13.76;98.02
66343;DHT22;53144;51.524;5.080;2022-09-09T05:03:05;13.75;98.10
66343;DHT22;53144;51.524;5.080;2022-09-09T05:05:32;13.75;98.21
66343;DHT22;53144;51.524;5.080;2022-09-09T05:08:07;13.80;98.16
66343;DHT22;53144;51.524;5.080;2022-09-09T05:10:34;13.86;98.00
66343;DHT22;53144;51.524;5.080;2022-09-09T05:13:01;13.92;97.86
66343;DHT22;53144;51.524;5.080;2022-09-09T05:15:26;13.90;97.73
66343;DHT22;53144;51.524;5.080;2022-09-09T05:17:52;13.98;97.78
66343;DHT22;53144;51.524;5.080;2022-09-09T05:20:18;13.98;97.69
66343;DHT22;53144;51.524;5.080;2022-09-09T05:22:43;13.96;97.78
66343;DHT22;53144;51.524;5.080;2022-09-09T05:25:09;14.02;97.87
66343;DHT22;53144;51.524;5.080;2022-09-09T05:27:37;14.05;97.66
66343;DHT22;53144;51.524;5.080;2022-09-09T05:30:03;14.10;97.65
66343;DHT22;53144;51.524;5.080;2022-09-09T05:32:30;14.06;97.57
66343;DHT22;53144;51.524;5.080;2022-09-09T05:34:59;14.05;97.73
66343;DHT22;53144;51.524;5.080;2022-09-09T05:37:24;14.03;97.71
66343;DHT22;53144;51.524;5.080;2022-09-09T05:39:50;14.08;97.60
66343;DHT22;53144;51.524;5.080;2022-09-09T05:42:16;14.13;97.66
66343;DHT22;53144;51.524;5.080;2022-09-09T05:44:41;14.19;97.68
66343;DHT22;53144;51.524;5.080;2022-09-09T05:47:08;14.26;97.41
66343;DHT22;53144;51.524;5.080;2022-09-09T05:49:34;14.27;97.43
66343;DHT22;53144;51.524;5.080;2022-09-09T05:52:00;14.29;97.37
66343;DHT22;53144;51.524;5.080;2022-09-09T05:54:25;14.40;97.01
66343;DHT22;53144;51.524;5.080;2022-09-09T05:56:50;14.45;96.61
66343;DHT22;53144;51.524;5.080;2022-09-09T05:59:17;14.47;96.75
66343;DHT22;53144;51.524;5.080;2022-09-09T06:01:43;14.52;96.76
66343;DHT22;53144;51.524;5.080;2022-09-09T06:04:10;14.52;96.77
66343;DHT22;53144;51.524;5.080;2022-09-09T06:06:36;14.57;96.33
66343;DHT22;53144;51.524;5.080;2022-09-09T06:09:04;14.60;96.20
66343;DHT22;53144;51.524;5.080;2022-09-09T06:11:32;14.61;95.96
66343;DHT22;53144;51.524;5.080;2022-09-09T06:13:57;14.58;96.11
66343;DHT22;53144;51.524;5.080;2022-09-09T06:16:25;14.57;96.21
66343;DHT22;53144;51.524;5.080;2022-09-09T06:18:52;14.54;96.26
66343;DHT22;53144;51.524;5.080;2022-09-09T06:21:55;14.58;96.11
66343;DHT22;53144;51.524;5.080;2022-09-09T06:24:17;14.65;96.04
66343;DHT22;53144;51.524;5.080;2022-09-09T06:26:56;14.74;95.86
66343;DHT22;53144;51.524;5.080;2022-09-09T06:29:22;14.81;95.74
66343;DHT22;53144;51.524;5.080;2022-09-09T06:31:47;14.85;95.34
66343;DHT22;53144;51.524;5.080;2022-09-09T06:34:13;14.88;95.65
66343;DHT22;53144;51.524;5.080;2022-09-09T06:36:39;14.93;95.75
66343;DHT22;53144;51.524;5.080;2022-09-09T06:39:05;14.91;95.29
66343;DHT22;53144;51.524;5.080;2022-09-09T06:41:32;14.96;94.52
66343;DHT22;53144;51.524;5.080;2022-09-09T06:44:04;15.09;94.71
66343;DHT22;53144;51.524;5.080;2022-09-09T06:46:33;15.13;94.98
66343;DHT22;53144;51.524;5.080;2022-09-09T06:49:00;15.19;94.72
66343;DHT22;53144;51.524;5.080;2022-09-09T06:51:33;15.20;94.61
66343;DHT22;53144;51.524;5.080;2022-09-09T06:54:00;15.22;94.18
66343;DHT22;53144;51.524;5.080;2022-09-09T06:56:32;15.22;94.36
66343;DHT22;53144;51.524;5.080;2022-09-09T06:59:00;15.32;94.29
66343;DHT22;53144;51.524;5.080;2022-09-09T07:01:39;15.32;94.33
66343;DHT22;53144;51.524;5.080;2022-09-09T07:04:19;15.35;94.52
66343;DHT22;53144;51.524;5.080;2022-09-09T07:06:45;15.43;93.68
66343;DHT22;53144;51.524;5.080;2022-09-09T07:09:13;15.46;93.94
66343;DHT22;53144;51.524;5.080;2022-09-09T07:11:50;15.49;93.50
66343;DHT22;53144;51.524;5.080;2022-09-09T07:14:42;15.58;93.56
66343;DHT22;53144;51.524;5.080;2022-09-09T07:17:07;15.57;93.22
66343;DHT22;53144;51.524;5.080;2022-09-09T07:19:40;15.58;92.91
66343;DHT22;53144;51.524;5.080;2022-09-09T07:22:08;15.68;92.58
66343;DHT22;53144;51.524;5.080;2022-09-09T07:24:35;15.75;93.00
66343;DHT22;53144;51.524;5.080;2022-09-09T07:27:04;15.91;92.44
66343;DHT22;53144;51.524;5.080;2022-09-09T07:30:09;16.02;91.40
66343;DHT22;53144;51.524;5.080;2022-09-09T07:32:43;16.14;91.52
66343;DHT22;53144;51.524;5.080;2022-09-09T07:35:19;16.35;91.28
66343;DHT22;53144;51.524;5.080;2022-09-09T07:38:07;16.53;90.08
66343;DHT22;53144;51.524;5.080;2022-09-09T07:40:41;16.49;90.24
66343;DHT22;53144;51.524;5.080;2022-09-09T07:43:09;16.48;90.33
66343;DHT22;53144;51.524;5.080;2022-09-09T07:45:39;16.43;90.69
66343;DHT22;53144;51.524;5.080;2022-09-09T07:48:08;16.35;89.98
66343;DHT22;53144;51.524;5.080;2022-09-09T07:50:34;16.32;90.66
66343;DHT22;53144;51.524;5.080;2022-09-09T07:52:59;16.25;90.22
66343;DHT22;53144;51.524;5.080;2022-09-09T07:55:25;16.22;89.81
66343;DHT22;53144;51.524;5.080;2022-09-09T07:57:53;16.30;89.99
66343;DHT22;53144;51.524;5.080;2022-09-09T08:00:18;16.41;89.97
66343;DHT22;53144;51.524;5.080;2022-09-09T08:02:44;16.42;90.20
66343;DHT22;53144;51.524;5.080;2022-09-09T08:05:11;16.46;89.66
66343;DHT22;53144;51.524;5.080;2022-09-09T08:07:38;16.41;89.61
66343;DHT22;53144;51.524;5.080;2022-09-09T08:10:04;16.41;90.06
66343;DHT22;53144;51.524;5.080;2022-09-09T08:12:29;16.41;89.61
66343;DHT22;53144;51.524;5.080;2022-09-09T08:14:55;16.49;89.98
66343;DHT22;53144;51.524;5.080;2022-09-09T08:17:20;16.41;89.38
66343;DHT22;53144;51.524;5.080;2022-09-09T08:19:46;16.35;89.77
66343;DHT22;53144;51.524;5.080;2022-09-09T08:22:11;16.36;89.69
66343;DHT22;53144;51.524;5.080;2022-09-09T08:24:37;16.32;89.58
66343;DHT22;53144;51.524;5.080;2022-09-09T08:27:05;16.30;89.10
66343;DHT22;53144;51.524;5.080;2022-09-09T08:29:31;16.28;89.40
66343;DHT22;53144;51.524;5.080;2022-09-09T08:31:59;16.36;89.39
66343;DHT22;53144;51.524;5.080;2022-09-09T08:34:25;16.33;89.45
66343;DHT22;53144;51.524;5.080;2022-09-09T08:36:52;16.29;89.51
66343;DHT22;53144;51.524;5.080;2022-09-09T08:39:20;16.36;89.13
66343;DHT22;53144;51.524;5.080;2022-09-09T08:42:08;16.51;89.60
66343;DHT22;53144;51.524;5.080;2022-09-09T08:47:54;16.77;88.39
66343;DHT22;53144;51.524;5.080;2022-09-09T08:50:30;16.81;88.02
66343;DHT22;53144;51.524;5.080;2022-09-09T08:53:20;16.79;87.64
66343;DHT22;53144;51.524;5.080;2022-09-09T08:55:49;16.77;87.01
66343;DHT22;53144;51.524;5.080;2022-09-09T08:58:25;16.76;87.89
66343;DHT22;53144;51.524;5.080;2022-09-09T09:11:52;16.62;88.80
66343;DHT22;53144;51.524;5.080;2022-09-09T09:14:24;16.48;89.93
66343;DHT22;53144;51.524;5.080;2022-09-09T09:17:12;16.32;90.38
66343;DHT22;53144;51.524;5.080;2022-09-09T09:19:42;16.11;91.60
66343;DHT22;53144;51.524;5.080;2022-09-09T09:29:51;15.94;92.76
66343;DHT22;53144;51.524;5.080;2022-09-09T09:32:30;15.85;92.92
66343;DHT22;53144;51.524;5.080;2022-09-09T09:34:58;15.85;92.52
66343;DHT22;53144;51.524;5.080;2022-09-09T09:37:32;15.87;92.97
66343;DHT22;53144;51.524;5.080;2022-09-09T09:40:25;15.81;92.32
66343;DHT22;53144;51.524;5.080;2022-09-09T09:43:00;15.85;92.69
66343;DHT22;53144;51.524;5.080;2022-09-09T09:45:45;16.04;92.49
66343;DHT22;53144;51.524;5.080;2022-09-09T09:48:12;16.21;91.68
66343;DHT22;53144;51.524;5.080;2022-09-09T09:50:51;16.35;91.47
66343;DHT22;53144;51.524;5.080;2022-09-09T09:53:24;16.39;91.18
66343;DHT22;53144;51.524;5.080;2022-09-09T09:55:59;16.45;91.28
66343;DHT22;53144;51.524;5.080;2022-09-09T09:58:27;16.36;90.47
66343;DHT22;53144;51.524;5.080;2022-09-09T10:00:56;16.42;90.86
66343;DHT22;53144;51.524;5.080;2022-09-09T10:03:29;16.43;90.94
66343;DHT22;53144;51.524;5.080;2022-09-09T10:05:55;16.49;91.25
66343;DHT22;53144;51.524;5.080;2022-09-09T10:08:27;16.64;90.69
66343;DHT22;53144;51.524;5.080;2022-09-09T10:13:40;16.84;90.64
66343;DHT22;53144;51.524;5.080;2022-09-09T10:22:15;17.72;88.64
66343;DHT22;53144;51.524;5.080;2022-09-09T10:28:10;17.97;88.56
66343;DHT22;53144;51.524;5.080;2022-09-09T10:33:39;18.24;86.63
66343;DHT22;53144;51.524;5.080;2022-09-09T10:36:23;18.17;87.84
66343;DHT22;53144;51.524;5.080;2022-09-09T10:38:58;17.81;87.76
66343;DHT22;53144;51.524;5.080;2022-09-09T10:47:00;17.17;90.39
66343;DHT22;53144;51.524;5.080;2022-09-09T10:50:10;16.90;91.81
66343;DHT22;53144;51.524;5.080;2022-09-09T10:55:23;16.52;93.10
66343;DHT22;53144;51.524;5.080;2022-09-09T10:57:52;16.49;92.70
66343;DHT22;53144;51.524;5.080;2022-09-09T11:00:45;16.51;92.97
66343;DHT22;53144;51.524;5.080;2022-09-09T11:03:20;16.43;93.13
66343;DHT22;53144;51.524;5.080;2022-09-09T11:05:51;16.43;93.36
66343;DHT22;53144;51.524;5.080;2022-09-09T11:11:02;16.21;93.85
66343;DHT22;53144;51.524;5.080;2022-09-09T11:13:42;16.09;93.77
66343;DHT22;53144;51.524;5.080;2022-09-09T11:19:02;16.36;95.15
66343;DHT22;53144;51.524;5.080;2022-09-09T11:21:38;16.49;94.40
66343;DHT22;53144;51.524;5.080;2022-09-09T11:24:11;16.56;93.07
66343;DHT22;53144;51.524;5.080;2022-09-09T11:26:45;16.64;93.01
66343;DHT22;53144;51.524;5.080;2022-09-09T11:31:52;16.79;92.64
66343;DHT22;53144;51.524;5.080;2022-09-09T11:34:55;16.97;92.82
66343;DHT22;53144;51.524;5.080;2022-09-09T11:40:26;16.73;93.07
66343;DHT22;53144;51.524;5.080;2022-09-09T11:43:04;16.63;93.92
66343;DHT22;53144;51.524;5.080;2022-09-09T11:45:34;16.52;94.15
66343;DHT22;53144;51.524;5.080;2022-09-09T11:48:01;16.51;94.47
66343;DHT22;53144;51.524;5.080;2022-09-09T11:50:33;16.72;94.42
66343;DHT22;53144;51.524;5.080;2022-09-09T11:53:20;16.66;93.82
66343;DHT22;53144;51.524;5.080;2022-09-09T11:55:48;16.69;94.33
66343;DHT22;53144;51.524;5.080;2022-09-09T11:58:24;16.81;94.70
66343;DHT22;53144;51.524;5.080;2022-09-09T12:00:50;16.88;92.78
66343;DHT22;53144;51.524;5.080;2022-09-09T12:08:49;16.88;92.40
66343;DHT22;53144;51.524;5.080;2022-09-09T12:11:29;16.83;92.98
66343;DHT22;53144;51.524;5.080;2022-09-09T12:14:00;16.85;92.84
66343;DHT22;53144;51.524;5.080;2022-09-09T12:16:36;16.94;92.01
66343;DHT22;53144;51.524;5.080;2022-09-09T12:19:22;17.10;92.36
66343;DHT22;53144;51.524;5.080;2022-09-09T12:22:27;17.39;91.25
66343;DHT22;53144;51.524;5.080;2022-09-09T12:28:21;17.90;90.22
66343;DHT22;53144;51.524;5.080;2022-09-09T12:31:01;18.06;88.85
66343;DHT22;53144;51.524;5.080;2022-09-09T12:33:39;18.29;87.13
66343;DHT22;53144;51.524;5.080;2022-09-09T12:36:12;18.48;86.26
66343;DHT22;53144;51.524;5.080;2022-09-09T12:38:43;19.43;83.35
66343;DHT22;53144;51.524;5.080;2022-09-09T12:41:20;19.60;80.76
66343;DHT22;53144;51.524;5.080;2022-09-09T12:43:48;19.60;83.38
66343;DHT22;53144;51.524;5.080;2022-09-09T12:46:29;19.91;79.41
66343;DHT22;53144;51.524;5.080;2022-09-09T12:48:58;20.05;79.21
66343;DHT22;53144;51.524;5.080;2022-09-09T12:51:27;19.46;79.96
66343;DHT22;53144;51.524;5.080;2022-09-09T12:53:53;18.94;82.40
66343;DHT22;53144;51.524;5.080;2022-09-09T12:56:21;18.88;83.38
66343;DHT22;53144;51.524;5.080;2022-09-09T12:58:49;19.27;80.51
66343;DHT22;53144;51.524;5.080;2022-09-09T13:03:48;19.09;81.84
66343;DHT22;53144;51.524;5.080;2022-09-09T13:06:30;19.31;81.46
66343;DHT22;53144;51.524;5.080;2022-09-09T13:08:58;19.31;80.55
66343;DHT22;53144;51.524;5.080;2022-09-09T13:14:33;19.15;82.53
66343;DHT22;53144;51.524;5.080;2022-09-09T13:17:04;19.00;82.36
66343;DHT22;53144;51.524;5.080;2022-09-09T13:19:43;18.84;81.56
66343;DHT22;53144;51.524;5.080;2022-09-09T13:22:37;18.84;82.60
66343;DHT22;53144;51.524;5.080;2022-09-09T13:27:58;18.69;81.74
66343;DHT22;53144;51.524;5.080;2022-09-09T13:30:32;18.65;82.88
66343;DHT22;53144;51.524;5.080;2022-09-09T13:35:32;18.61;82.11
66343;DHT22;53144;51.524;5.080;2022-09-09T13:37:59;18.61;82.18
66343;DHT22;53144;51.524;5.080;2022-09-09T13:40:31;18.67;82.51
66343;DHT22;53144;51.524;5.080;2022-09-09T13:42:57;18.85;82.07
66343;DHT22;53144;51.524;5.080;2022-09-09T13:45:25;19.39;79.49
66343;DHT22;53144;51.524;5.080;2022-09-09T13:47:54;19.70;78.64
66343;DHT22;53144;51.524;5.080;2022-09-09T13:50:39;19.50;77.88
66343;DHT22;53144;51.524;5.080;2022-09-09T13:53:08;19.23;78.24
66343;DHT22;53144;51.524;5.080;2022-09-09T13:55:36;19.22;78.85
66343;DHT22;53144;51.524;5.080;2022-09-09T13:58:03;19.22;78.05
66343;DHT22;53144;51.524;5.080;2022-09-09T14:00:32;19.24;77.08
66343;DHT22;53144;51.524;5.080;2022-09-09T14:02:58;19.54;77.77
66343;DHT22;53144;51.524;5.080;2022-09-09T14:05:25;19.75;76.62
66343;DHT22;53144;51.524;5.080;2022-09-09T14:07:51;19.66;76.60
66343;DHT22;53144;51.524;5.080;2022-09-09T14:10:16;19.47;77.29
66343;DHT22;53144;51.524;5.080;2022-09-09T14:12:42;19.23;77.78
66343;DHT22;53144;51.524;5.080;2022-09-09T14:15:09;19.05;78.66
66343;DHT22;53144;51.524;5.080;2022-09-09T14:17:35;18.96;78.14
66343;DHT22;53144;51.524;5.080;2022-09-09T14:20:05;18.89;78.00
66343;DHT22;53144;51.524;5.080;2022-09-09T14:22:36;18.76;79.64
66343;DHT22;53144;51.524;5.080;2022-09-09T14:25:02;18.64;79.80
66343;DHT22;53144;51.524;5.080;2022-09-09T14:27:27;18.50;81.72
66343;DHT22;53144;51.524;5.080;2022-09-09T14:29:53;18.52;80.96
66343;DHT22;53144;51.524;5.080;2022-09-09T14:32:19;18.41;82.18
66343;DHT22;53144;51.524;5.080;2022-09-09T14:34:45;17.83;87.88
66343;DHT22;53144;51.524;5.080;2022-09-09T14:37:10;17.24;90.83
66343;DHT22;53144;51.524;5.080;2022-09-09T14:39:38;16.91;93.46
66343;DHT22;53144;51.524;5.080;2022-09-09T14:42:03;16.69;95.25
66343;DHT22;53144;51.524;5.080;2022-09-09T14:44:29;16.48;95.66
66343;DHT22;53144;51.524;5.080;2022-09-09T14:46:54;16.26;94.19
66343;DHT22;53144;51.524;5.080;2022-09-09T14:49:20;16.04;95.71
66343;DHT22;53144;51.524;5.080;2022-09-09T14:51:45;15.94;96.24
66343;DHT22;53144;51.524;5.080;2022-09-09T14:54:11;15.87;95.98
66343;DHT22;53144;51.524;5.080;2022-09-09T14:56:36;15.83;95.93
66343;DHT22;53144;51.524;5.080;2022-09-09T14:59:03;15.78;96.57
66343;DHT22;53144;51.524;5.080;2022-09-09T15:01:30;15.77;95.83
66343;DHT22;53144;51.524;5.080;2022-09-09T15:04:02;15.71;96.03
66343;DHT22;53144;51.524;5.080;2022-09-09T15:06:33;15.70;95.75
66343;DHT22;53144;51.524;5.080;2022-09-09T15:08:59;15.73;95.75
66343;DHT22;53144;51.524;5.080;2022-09-09T15:11:30;15.81;95.96
66343;DHT22;53144;51.524;5.080;2022-09-09T15:13:57;15.88;96.18
66343;DHT22;53144;51.524;5.080;2022-09-09T15:16:25;16.02;96.86
66343;DHT22;53144;51.524;5.080;2022-09-09T15:18:53;16.19;96.53
66343;DHT22;53144;51.524;5.080;2022-09-09T15:21:31;16.28;96.09
66343;DHT22;53144;51.524;5.080;2022-09-09T15:23:57;16.24;95.85
66343;DHT22;53144;51.524;5.080;2022-09-09T15:26:23;16.29;95.69
66343;DHT22;53144;51.524;5.080;2022-09-09T15:28:49;16.30;94.93
66343;DHT22;53144;51.524;5.080;2022-09-09T15:31:33;16.30;95.61
66343;DHT22;53144;51.524;5.080;2022-09-09T15:34:05;16.28;94.17
66343;DHT22;53144;51.524;5.080;2022-09-09T15:36:38;16.35;94.74
66343;DHT22;53144;51.524;5.080;2022-09-09T15:39:07;16.43;94.92
66343;DHT22;53144;51.524;5.080;2022-09-09T15:41:33;16.46;95.54
66343;DHT22;53144;51.524;5.080;2022-09-09T15:43:59;16.55;95.94
66343;DHT22;53144;51.524;5.080;2022-09-09T15:46:36;16.57;95.90
66343;DHT22;53144;51.524;5.080;2022-09-09T15:51:34;16.59;95.85
66343;DHT22;53144;51.524;5.080;2022-09-09T15:54:00;16.59;95.93
66343;DHT22;53144;51.524;5.080;2022-09-09T15:56:26;16.57;95.73
66343;DHT22;53144;51.524;5.080;2022-09-09T15:58:53;16.59;96.35
66343;DHT22;53144;51.524;5.080;2022-09-09T16:01:20;16.60;96.07
66343;DHT22;53144;51.524;5.080;2022-09-09T16:03:46;16.62;95.95
66343;DHT22;53144;51.524;5.080;2022-09-09T16:06:16;16.66;96.92
66343;DHT22;53144;51.524;5.080;2022-09-09T16:08:43;16.66;96.50
66343;DHT22;53144;51.524;5.080;2022-09-09T16:11:13;16.70;96.83
66343;DHT22;53144;51.524;5.080;2022-09-09T16:13:44;16.69;96.86
66343;DHT22;53144;51.524;5.080;2022-09-09T16:16:13;16.66;96.67
66343;DHT22;53144;51.524;5.080;2022-09-09T16:18:45;16.70;96.55
66343;DHT22;53144;51.524;5.080;2022-09-09T16:21:16;16.72;96.60
66343;DHT22;53144;51.524;5.080;2022-09-09T16:23:42;16.62;95.93
66343;DHT22;53144;51.524;5.080;2022-09-09T16:26:11;16.63;96.02
66343;DHT22;53144;51.524;5.080;2022-09-09T16:28:37;16.59;95.46
66343;DHT22;53144;51.524;5.080;2022-09-09T16:31:11;16.60;94.88
66343;DHT22;53144;51.524;5.080;2022-09-09T16:33:39;16.57;95.04
66343;DHT22;53144;51.524;5.080;2022-09-09T16:36:13;16.49;94.98
66343;DHT22;53144;51.524;5.080;2022-09-09T16:38:39;16.45;95.10
66343;DHT22;53144;51.524;5.080;2022-09-09T16:41:06;16.42;95.10
66343;DHT22;53144;51.524;5.080;2022-09-09T16:43:33;16.43;95.90
66343;DHT22;53144;51.524;5.080;2022-09-09T16:45:58;16.41;96.65
66343;DHT22;53144;51.524;5.080;2022-09-09T16:48:27;16.39;96.70
66343;DHT22;53144;51.524;5.080;2022-09-09T16:51:12;16.38;96.94
66343;DHT22;53144;51.524;5.080;2022-09-09T16:53:39;16.39;96.81
66343;DHT22;53144;51.524;5.080;2022-09-09T16:56:06;16.43;96.98
66343;DHT22;53144;51.524;5.080;2022-09-09T16:58:32;16.52;96.78
66343;DHT22;53144;51.524;5.080;2022-09-09T17:00:59;16.56;96.82
66343;DHT22;53144;51.524;5.080;2022-09-09T17:03:25;16.62;96.63
66343;DHT22;53144;51.524;5.080;2022-09-09T17:05:51;16.70;96.45
66343;DHT22;53144;51.524;5.080;2022-09-09T17:08:16;16.70;95.81
66343;DHT22;53144;51.524;5.080;2022-09-09T17:10:42;16.81;95.87
66343;DHT22;53144;51.524;5.080;2022-09-09T17:13:07;16.85;95.16
66343;DHT22;53144;51.524;5.080;2022-09-09T17:15:33;16.85;94.78
66343;DHT22;53144;51.524;5.080;2022-09-09T17:17:59;16.91;94.82
66343;DHT22;53144;51.524;5.080;2022-09-09T17:20:25;16.88;94.72
66343;DHT22;53144;51.524;5.080;2022-09-09T17:22:50;16.85;93.54
66343;DHT22;53144;51.524;5.080;2022-09-09T17:25:16;16.80;93.74
66343;DHT22;53144;51.524;5.080;2022-09-09T17:27:44;16.72;93.96
66343;DHT22;53144;51.524;5.080;2022-09-09T17:30:10;16.63;93.44
66343;DHT22;53144;51.524;5.080;2022-09-09T17:32:36;16.52;93.89
66343;DHT22;53144;51.524;5.080;2022-09-09T17:35:02;16.43;93.24
66343;DHT22;53144;51.524;5.080;2022-09-09T17:37:27;16.41;93.71
66343;DHT22;53144;51.524;5.080;2022-09-09T17:39:53;16.36;94.02